sensor_id;sensor_type;location;lat;lon;timestamp;pressure;altitude;pressure_sealevel;temperature;humidity
6224;BME280;3145;42.726;23.342;2023-01-27T00:00:17;94547.75;;;0.56;nan
6224;BME280;3145;42.726;23.342;2023-01-27T00:02:44;94548.97;;;0.52;nan
6224;BME280;3145;42.726;23.342;2023-01-27T00:05:13;94551.41;;;0.54;nan
6224;BME280;3145;42.726;23.342;2023-01-27T00:07:40;94544.44;;;0.54;nan
6224;BME280;3145;42.726;23.342;2023-01-27T00:10:12;94544.56;;;0.62;nan
6224;BME280;3145;42.726;23.342;2023-01-27T00:12:41;94531.06;;;0.49;nan
6224;BME280;3145;42.726;23.342;2023-01-27T00:15:27;94536.25;;;0.68;nan
6224;BME280;3145;42.726;23.342;2023-01-27T00:17:54;94535.41;;;0.68;nan
6224;BME280;3145;42.726;23.342;2023-01-27T00:20:21;94550.16;;;0.77;nan
6224;BME280;3145;42.726;23.342;2023-01-27T00:23:02;94532.38;;;0.82;nan
6224;BME280;3145;42.726;23.342;2023-01-27T00:25:46;94527.97;;;0.82;nan
6224;BME280;3145;42.726;23.342;2023-01-27T00:28:14;94511.72;;;0.80;nan
6224;BME280;3145;42.726;23.342;2023-01-27T00:30:48;94499.66;;;0.79;nan
6224;BME280;3145;42.726;23.342;2023-01-27T00:33:15;94506.94;;;0.76;nan
6224;BME280;3145;42.726;23.342;2023-01-27T00:35:55;94492.72;;;0.70;nan
6224;BME280;3145;42.726;23.342;2023-01-27T00:38:23;94511.03;;;0.78;nan
6224;BME280;3145;42.726;23.342;2023-01-27T00:40:50;94498.38;;;0.66;nan
6224;BME280;3145;42.726;23.342;2023-01-27T00:43:30;94519.22;;;0.83;nan
6224;BME280;3145;42.726;23.342;2023-01-27T00:45:58;94497.66;;;0.73;nan
6224;BME280;3145;42.726;23.342;2023-01-27T00:48:25;94512.13;;;0.85;nan
6224;BME280;3145;42.726;23.342;2023-01-27T00:50:52;94516.91;;;0.90;nan
6224;BME280;3145;42.726;23.342;2023-01-27T00:53:19;94526.06;;;0.84;nan
6224;BME280;3145;42.726;23.342;2023-01-27T00:55:45;94532.91;;;0.85;nan
6224;BME280;3145;42.726;23.342;2023-01-27T00:58:13;94529.06;;;0.89;nan
6224;BME280;3145;42.726;23.342;2023-01-27T01:00:40;94516.72;;;0.91;nan
6224;BME280;3145;42.726;23.342;2023-01-27T01:03:09;94522.75;;;0.92;nan
6224;BME280;3145;42.726;23.342;2023-01-27T01:05:35;94523.59;;;0.92;nan
6224;BME280;3145;42.726;23.342;2023-01-27T01:08:03;94514.00;;;0.93;nan
6224;BME280;3145;42.726;23.342;2023-01-27T01:10:29;94511.25;;;0.94;nan
6224;BME280;3145;42.726;23.342;2023-01-27T01:12:56;94512.38;;;0.92;nan
6224;BME280;3145;42.726;23.342;2023-01-27T01:15:23;94509.63;;;0.93;nan
6224;BME280;3145;42.726;23.342;2023-01-27T01:17:49;94513.09;;;0.84;nan
6224;BME280;3145;42.726;23.342;2023-01-27T01:20:17;94509.66;;;0.84;nan
6224;BME280;3145;42.726;23.342;2023-01-27T01:22:44;94505.69;;;0.80;nan
6224;BME280;3145;42.726;23.342;2023-01-27T01:25:11;94517.03;;;0.88;nan
6224;BME280;3145;42.726;23.342;2023-01-27T01:27:38;94518.28;;;0.84;nan
6224;BME280;3145;42.726;23.342;2023-01-27T01:30:05;94518.94;;;0.86;nan
6224;BME280;3145;42.726;23.342;2023-01-27T01:32:33;94512.63;;;0.89;nan
6224;BME280;3145;42.726;23.342;2023-01-27T01:35:00;94496.13;;;0.80;nan
6224;BME280;3145;42.726;23.342;2023-01-27T01:37:28;94508.66;;;0.94;nan
6224;BME280;3145;42.726;23.342;2023-01-27T01:39:55;94518.09;;;0.95;nan
6224;BME280;3145;42.726;23.342;2023-01-27T01:42:21;94528.09;;;0.90;nan
6224;BME280;3145;42.726;23.342;2023-01-27T01:44:52;94500.38;;;0.81;nan
6224;BME280;3145;42.726;23.342;2023-01-27T01:47:37;94534.94;;;0.91;nan
6224;BME280;3145;42.726;23.342;2023-01-27T01:50:05;94537.13;;;0.86;nan
6224;BME280;3145;42.726;23.342;2023-01-27T01:52:33;94529.72;;;0.91;nan
6224;BME280;3145;42.726;23.342;2023-01-27T01:54:59;94520.84;;;0.94;nan
6224;BME280;3145;42.726;23.342;2023-01-27T01:57:28;94520.03;;;0.93;nan
6224;BME280;3145;42.726;23.342;2023-01-27T02:00:00;94514.00;;;0.93;nan
6224;BME280;3145;42.726;23.342;2023-01-27T02:02:28;94505.94;;;0.86;nan
6224;BME280;3145;42.726;23.342;2023-01-27T02:04:58;94503.06;;;0.89;nan
6224;BME280;3145;42.726;23.342;2023-01-27T02:07:30;94502.09;;;0.90;nan
6224;BME280;3145;42.726;23.342;2023-01-27T02:10:00;94490.75;;;0.91;nan
6224;BME280;3145;42.726;23.342;2023-01-27T02:12:28;94486.38;;;0.92;nan
6224;BME280;3145;42.726;23.342;2023-01-27T02:14:55;94476.09;;;0.90;nan
6224;BME280;3145;42.726;23.342;2023-01-27T02:17:21;94463.94;;;0.91;nan
6224;BME280;3145;42.726;23.342;2023-01-27T02:19:54;94451.94;;;0.80;nan
6224;BME280;3145;42.726;23.342;2023-01-27T02:22:29;94445.09;;;0.79;nan
6224;BME280;3145;42.726;23.342;2023-01-27T02:25:04;94451.38;;;0.86;nan
6224;BME280;3145;42.726;23.342;2023-01-27T02:27:33;94441.25;;;0.83;nan
6224;BME280;3145;42.726;23.342;2023-01-27T02:30:00;94442.31;;;0.90;nan
6224;BME280;3145;42.726;23.342;2023-01-27T02:32:26;94428.16;;;0.75;nan
6224;BME280;3145;42.726;23.342;2023-01-27T02:34:54;94427.06;;;0.78;nan
6224;BME280;3145;42.726;23.342;2023-01-27T02:37:22;94447.78;;;0.87;nan
6224;BME280;3145;42.726;23.342;2023-01-27T02:39:50;94452.56;;;0.92;nan
6224;BME280;3145;42.726;23.342;2023-01-27T02:42:18;94444.25;;;0.88;nan
6224;BME280;3145;42.726;23.342;2023-01-27T02:44:46;94451.91;;;0.90;nan
6224;BME280;3145;42.726;23.342;2023-01-27T02:47:13;94450.50;;;0.95;nan
6224;BME280;3145;42.726;23.342;2023-01-27T02:49:39;94449.16;;;0.91;nan
6224;BME280;3145;42.726;23.342;2023-01-27T02:52:06;94454.34;;;0.91;nan
6224;BME280;3145;42.726;23.342;2023-01-27T02:54:33;94473.22;;;0.93;nan
6224;BME280;3145;42.726;23.342;2023-01-27T02:56:59;94450.41;;;0.87;nan
6224;BME280;3145;42.726;23.342;2023-01-27T02:59:26;94465.81;;;0.98;nan
6224;BME280;3145;42.726;23.342;2023-01-27T03:01:54;94462.25;;;0.99;nan
6224;BME280;3145;42.726;23.342;2023-01-27T03:04:21;94458.16;;;0.97;nan
6224;BME280;3145;42.726;23.342;2023-01-27T03:06:48;94455.41;;;0.98;nan
6224;BME280;3145;42.726;23.342;2023-01-27T03:09:14;94451.84;;;0.99;nan
6224;BME280;3145;42.726;23.342;2023-01-27T03:11:41;94453.94;;;0.96;nan
6224;BME280;3145;42.726;23.342;2023-01-27T03:14:24;94448.31;;;1.00;nan
6224;BME280;3145;42.726;23.342;2023-01-27T03:17:10;94451.84;;;0.99;nan
6224;BME280;3145;42.726;23.342;2023-01-27T03:19:54;94444.34;;;0.96;nan
6224;BME280;3145;42.726;23.342;2023-01-27T03:22:21;94432.31;;;0.95;nan
6224;BME280;3145;42.726;23.342;2023-01-27T03:24:48;94433.50;;;1.01;nan
6224;BME280;3145;42.726;23.342;2023-01-27T03:27:15;94427.06;;;1.05;nan
6224;BME280;3145;42.726;23.342;2023-01-27T03:29:41;94437.31;;;1.06;nan
6224;BME280;3145;42.726;23.342;2023-01-27T03:32:22;94425.56;;;1.02;nan
6224;BME280;3145;42.726;23.342;2023-01-27T03:34:49;94425.28;;;1.05;nan
6224;BME280;3145;42.726;23.342;2023-01-27T03:37:16;94417.63;;;1.04;nan
6224;BME280;3145;42.726;23.342;2023-01-27T03:40:01;94401.50;;;1.00;nan
6224;BME280;3145;42.726;23.342;2023-01-27T03:42:45;94407.00;;;0.97;nan
6224;BME280;3145;42.726;23.342;2023-01-27T03:45:29;94389.91;;;0.95;nan
6224;BME280;3145;42.726;23.342;2023-01-27T03:48:14;94387.16;;;0.96;nan
6224;BME280;3145;42.726;23.342;2023-01-27T03:50:45;94367.41;;;0.86;nan
6224;BME280;3145;42.726;23.342;2023-01-27T03:53:17;94387.31;;;0.95;nan
6224;BME280;3145;42.726;23.342;2023-01-27T03:55:44;94389.38;;;0.91;nan
6224;BME280;3145;42.726;23.342;2023-01-27T03:58:18;94398.50;;;0.95;nan
6224;BME280;3145;42.726;23.342;2023-01-27T04:00:47;94403.44;;;0.98;nan
6224;BME280;3145;42.726;23.342;2023-01-27T04:03:16;94387.25;;;1.04;nan
6224;BME280;3145;42.726;23.342;2023-01-27T04:06:02;94388.19;;;1.03;nan
6224;BME280;3145;42.726;23.342;2023-01-27T04:08:46;94413.25;;;1.04;nan
6224;BME280;3145;42.726;23.342;2023-01-27T04:11:13;94429.00;;;1.03;nan
6224;BME280;3145;42.726;23.342;2023-01-27T04:13:59;94434.63;;;0.98;nan
6224;BME280;3145;42.726;23.342;2023-01-27T04:16:26;94445.03;;;0.98;nan
6224;BME280;3145;42.726;23.342;2023-01-27T04:18:56;94446.28;;;0.94;nan
6224;BME280;3145;42.726;23.342;2023-01-27T04:21:24;94458.16;;;0.97;nan
6224;BME280;3145;42.726;23.342;2023-01-27T04:23:51;94471.88;;;0.89;nan
6224;BME280;3145;42.726;23.342;2023-01-27T04:26:18;94463.13;;;0.90;nan
6224;BME280;3145;42.726;23.342;2023-01-27T04:28:45;94465.06;;;0.88;nan
6224;BME280;3145;42.726;23.342;2023-01-27T04:31:12;94449.75;;;0.85;nan
6224;BME280;3145;42.726;23.342;2023-01-27T04:33:39;94480.06;;;0.94;nan
6224;BME280;3145;42.726;23.342;2023-01-27T04:36:08;94482.38;;;0.97;nan
6224;BME280;3145;42.726;23.342;2023-01-27T04:38:35;94493.31;;;1.01;nan
6224;BME280;3145;42.726;23.342;2023-01-27T04:41:02;94464.09;;;0.89;nan
6224;BME280;3145;42.726;23.342;2023-01-27T04:43:29;94485.50;;;1.01;nan
6224;BME280;3145;42.726;23.342;2023-01-27T04:45:55;94454.66;;;0.88;nan
6224;BME280;3145;42.726;23.342;2023-01-27T04:48:22;94493.16;;;1.02;nan
6224;BME280;3145;42.726;23.342;2023-01-27T04:50:49;94480.41;;;1.09;nan
6224;BME280;3145;42.726;23.342;2023-01-27T04:53:17;94472.31;;;1.12;nan
6224;BME280;3145;42.726;23.342;2023-01-27T04:55:46;94466.06;;;1.05;nan
6224;BME280;3145;42.726;23.342;2023-01-27T04:58:14;94491.75;;;1.17;nan
6224;BME280;3145;42.726;23.342;2023-01-27T05:00:42;94484.91;;;1.16;nan
6224;BME280;3145;42.726;23.342;2023-01-27T05:03:09;94489.50;;;1.22;nan
6224;BME280;3145;42.726;23.342;2023-01-27T05:05:36;94476.69;;;1.11;nan
6224;BME280;3145;42.726;23.342;2023-01-27T05:08:04;94468.78;;;1.03;nan
6224;BME280;3145;42.726;23.342;2023-01-27T05:10:32;94491.75;;;1.17;nan
6224;BME280;3145;42.726;23.342;2023-01-27T05:12:59;94486.63;;;1.52;nan
6224;BME280;3145;42.726;23.342;2023-01-27T05:15:27;94483.91;;;1.89;nan
6224;BME280;3145;42.726;23.342;2023-01-27T05:17:54;94485.25;;;1.93;nan
6224;BME280;3145;42.726;23.342;2023-01-27T05:20:20;94471.78;;;1.80;nan
6224;BME280;3145;42.726;23.342;2023-01-27T05:22:49;94482.94;;;1.72;nan
6224;BME280;3145;42.726;23.342;2023-01-27T05:25:16;94481.78;;;1.57;nan
6224;BME280;3145;42.726;23.342;2023-01-27T05:27:44;94481.94;;;1.56;nan
6224;BME280;3145;42.726;23.342;2023-01-27T05:30:11;94476.50;;;1.49;nan
6224;BME280;3145;42.726;23.342;2023-01-27T05:32:38;94467.94;;;1.39;nan
6224;BME280;3145;42.726;23.342;2023-01-27T05:35:06;94464.28;;;1.32;nan
6224;BME280;3145;42.726;23.342;2023-01-27T05:37:33;94467.88;;;1.31;nan
6224;BME280;3145;42.726;23.342;2023-01-27T05:39:59;94452.34;;;1.12;nan
6224;BME280;3145;42.726;23.342;2023-01-27T05:42:26;94458.22;;;1.14;nan
6224;BME280;3145;42.726;23.342;2023-01-27T05:44:54;94452.34;;;1.12;nan
6224;BME280;3145;42.726;23.342;2023-01-27T05:47:21;94445.81;;;1.08;nan
6224;BME280;3145;42.726;23.342;2023-01-27T05:49:47;94437.91;;;1.00;nan
6224;BME280;3145;42.726;23.342;2023-01-27T05:52:14;94442.31;;;0.90;nan
6224;BME280;3145;42.726;23.342;2023-01-27T05:54:41;94450.81;;;0.92;nan
6224;BME280;3145;42.726;23.342;2023-01-27T05:57:07;94458.28;;;0.95;nan
6224;BME280;3145;42.726;23.342;2023-01-27T05:59:34;94453.09;;;0.95;nan
6224;BME280;3145;42.726;23.342;2023-01-27T06:02:02;94456.53;;;0.96;nan
6224;BME280;3145;42.726;23.342;2023-01-27T06:04:29;94446.75;;;0.80;nan
6224;BME280;3145;42.726;23.342;2023-01-27T06:06:55;94469.19;;;0.81;nan
6224;BME280;3145;42.726;23.342;2023-01-27T06:09:22;94470.59;;;0.66;nan
6224;BME280;3145;42.726;23.342;2023-01-27T06:11:49;94471.66;;;0.73;nan
6224;BME280;3145;42.726;23.342;2023-01-27T06:14:16;94441.59;;;0.71;nan
6224;BME280;3145;42.726;23.342;2023-01-27T06:16:43;94398.88;;;0.46;nan
6224;BME280;3145;42.726;23.342;2023-01-27T06:19:13;94462.31;;;0.90;nan
6224;BME280;3145;42.726;23.342;2023-01-27T06:21:39;94479.09;;;0.95;nan
6224;BME280;3145;42.726;23.342;2023-01-27T06:24:06;94469.38;;;0.97;nan
6224;BME280;3145;42.726;23.342;2023-01-27T06:26:33;94468.19;;;0.92;nan
6224;BME280;3145;42.726;23.342;2023-01-27T06:29:00;94478.81;;;0.98;nan
6224;BME280;3145;42.726;23.342;2023-01-27T06:31:26;94474.59;;;0.97;nan
6224;BME280;3145;42.726;23.342;2023-01-27T06:33:53;94470.72;;;1.01;nan
6224;BME280;3145;42.726;23.342;2023-01-27T06:36:21;94477.28;;;1.05;nan
6224;BME280;3145;42.726;23.342;2023-01-27T06:38:49;94472.09;;;1.05;nan
6224;BME280;3145;42.726;23.342;2023-01-27T06:41:16;94474.69;;;1.05;nan
6224;BME280;3145;42.726;23.342;2023-01-27T06:43:42;94470.69;;;1.11;nan
6224;BME280;3145;42.726;23.342;2023-01-27T06:46:09;94480.53;;;1.07;nan
6224;BME280;3145;42.726;23.342;2023-01-27T06:48:36;94483.25;;;1.15;nan
6224;BME280;3145;42.726;23.342;2023-01-27T06:51:03;94481.34;;;1.17;nan
6224;BME280;3145;42.726;23.342;2023-01-27T06:53:32;94484.03;;;1.25;nan
6224;BME280;3145;42.726;23.342;2023-01-27T06:56:00;94485.44;;;1.20;nan
6224;BME280;3145;42.726;23.342;2023-01-27T06:58:27;94494.72;;;1.22;nan
6224;BME280;3145;42.726;23.342;2023-01-27T07:00:55;94494.72;;;1.22;nan
6224;BME280;3145;42.726;23.342;2023-01-27T07:03:22;94486.91;;;1.22;nan
6224;BME280;3145;42.726;23.342;2023-01-27T07:05:49;94498.47;;;1.37;nan
6224;BME280;3145;42.726;23.342;2023-01-27T07:08:16;94499.44;;;1.36;nan
6224;BME280;3145;42.726;23.342;2023-01-27T07:10:44;94505.03;;;1.41;nan
6224;BME280;3145;42.726;23.342;2023-01-27T07:13:12;94500.91;;;1.48;nan
6224;BME280;3145;42.726;23.342;2023-01-27T07:15:39;94485.56;;;1.45;nan
6224;BME280;3145;42.726;23.342;2023-01-27T07:18:06;94500.09;;;1.65;nan
6224;BME280;3145;42.726;23.342;2023-01-27T07:20:33;94495.25;;;1.70;nan
6224;BME280;3145;42.726;23.342;2023-01-27T07:23:01;94497.22;;;1.68;nan
6224;BME280;3145;42.726;23.342;2023-01-27T07:25:29;94485.06;;;1.77;nan
6224;BME280;3145;42.726;23.342;2023-01-27T07:27:58;94502.72;;;1.83;nan
6224;BME280;3145;42.726;23.342;2023-01-27T07:30:25;94485.06;;;1.77;nan
6224;BME280;3145;42.726;23.342;2023-01-27T07:32:52;94497.44;;;1.92;nan
6224;BME280;3145;42.726;23.342;2023-01-27T07:35:20;94493.28;;;1.99;nan
6224;BME280;3145;42.726;23.342;2023-01-27T07:37:47;94492.53;;;2.07;nan
6224;BME280;3145;42.726;23.342;2023-01-27T07:40:14;94497.97;;;2.13;nan
6224;BME280;3145;42.726;23.342;2023-01-27T07:42:41;94504.72;;;2.24;nan
6224;BME280;3145;42.726;23.342;2023-01-27T07:45:09;94490.16;;;2.13;nan
6224;BME280;3145;42.726;23.342;2023-01-27T07:47:36;94503.31;;;2.12;nan
6224;BME280;3145;42.726;23.342;2023-01-27T07:50:04;94490.38;;;2.02;nan
6224;BME280;3145;42.726;23.342;2023-01-27T07:52:31;94491.50;;;2.17;nan
6224;BME280;3145;42.726;23.342;2023-01-27T07:54:57;94485.63;;;2.15;nan
6224;BME280;3145;42.726;23.342;2023-01-27T07:57:24;94490.22;;;2.21;nan
6224;BME280;3145;42.726;23.342;2023-01-27T07:59:51;94502.19;;;2.14;nan
6224;BME280;3145;42.726;23.342;2023-01-27T08:02:21;94514.56;;;2.30;nan
6224;BME280;3145;42.726;23.342;2023-01-27T08:04:48;94499.44;;;2.33;nan
6224;BME280;3145;42.726;23.342;2023-01-27T08:07:15;94504.06;;;2.39;nan
6224;BME280;3145;42.726;23.342;2023-01-27T08:09:42;94503.16;;;2.48;nan
6224;BME280;3145;42.726;23.342;2023-01-27T08:12:08;94503.34;;;2.55;nan
6224;BME280;3145;42.726;23.342;2023-01-27T08:14:35;94506.56;;;2.66;nan
6224;BME280;3145;42.726;23.342;2023-01-27T08:17:02;94500.88;;;2.71;nan
6224;BME280;3145;42.726;23.342;2023-01-27T08:19:30;94501.22;;;2.76;nan
6224;BME280;3145;42.726;23.342;2023-01-27T08:21:56;94491.91;;;2.73;nan
6224;BME280;3145;42.726;23.342;2023-01-27T08:24:23;94481.91;;;2.61;nan
6224;BME280;3145;42.726;23.342;2023-01-27T08:26:50;94494.56;;;2.56;nan
6224;BME280;3145;42.726;23.342;2023-01-27T08:29:16;94504.06;;;2.39;nan
6224;BME280;3145;42.726;23.342;2023-01-27T08:31:43;94504.22;;;2.20;nan
6224;BME280;3145;42.726;23.342;2023-01-27T08:34:10;94511.53;;;1.99;nan
6224;BME280;3145;42.726;23.342;2023-01-27T08:36:40;94502.44;;;2.03;nan
6224;BME280;3145;42.726;23.342;2023-01-27T08:39:08;94500.28;;;1.99;nan
6224;BME280;3145;42.726;23.342;2023-01-27T08:41:35;94456.75;;;1.56;nan
6224;BME280;3145;42.726;23.342;2023-01-27T08:44:01;94504.56;;;1.90;nan
6224;BME280;3145;42.726;23.342;2023-01-27T08:46:28;94509.94;;;1.89;nan
6224;BME280;3145;42.726;23.342;2023-01-27T08:48:55;94511.38;;;1.83;nan
6224;BME280;3145;42.726;23.342;2023-01-27T08:51:22;94517.16;;;1.77;nan
6224;BME280;3145;42.726;23.342;2023-01-27T08:53:50;94504.28;;;1.76;nan
6224;BME280;3145;42.726;23.342;2023-01-27T08:56:17;94504.72;;;1.89;nan
6224;BME280;3145;42.726;23.342;2023-01-27T08:58:44;94510.31;;;1.76;nan
6224;BME280;3145;42.726;23.342;2023-01-27T09:01:13;94504.91;;;1.87;nan
6224;BME280;3145;42.726;23.342;2023-01-27T09:03:40;94492.69;;;1.88;nan
6224;BME280;3145;42.726;23.342;2023-01-27T09:06:09;94489.34;;;1.95;nan
6224;BME280;3145;42.726;23.342;2023-01-27T09:08:36;94459.31;;;1.83;nan
6224;BME280;3145;42.726;23.342;2023-01-27T09:11:09;94489.19;;;2.14;nan
6224;BME280;3145;42.726;23.342;2023-01-27T09:13:36;94503.38;;;2.20;nan
6224;BME280;3145;42.726;23.342;2023-01-27T09:16:03;94502.75;;;2.18;nan
6224;BME280;3145;42.726;23.342;2023-01-27T09:18:30;94495.44;;;2.21;nan
6224;BME280;3145;42.726;23.342;2023-01-27T09:20:57;94498.41;;;2.26;nan
6224;BME280;3145;42.726;23.342;2023-01-27T09:23:28;94502.88;;;2.34;nan
6224;BME280;3145;42.726;23.342;2023-01-27T09:25:54;94502.13;;;2.41;nan
6224;BME280;3145;42.726;23.342;2023-01-27T09:28:22;94483.50;;;2.36;nan
6224;BME280;3145;42.726;23.342;2023-01-27T09:30:49;94484.97;;;2.56;nan
6224;BME280;3145;42.726;23.342;2023-01-27T09:33:16;94477.00;;;2.58;nan
6224;BME280;3145;42.726;23.342;2023-01-27T09:35:45;94473.16;;;2.70;nan
6224;BME280;3145;42.726;23.342;2023-01-27T09:38:15;94476.91;;;2.67;nan
6224;BME280;3145;42.726;23.342;2023-01-27T09:40:56;94472.72;;;2.74;nan
6224;BME280;3145;42.726;23.342;2023-01-27T09:43:55;94459.94;;;2.63;nan
6224;BME280;3145;42.726;23.342;2023-01-27T09:46:38;94465.94;;;2.64;nan
6224;BME280;3145;42.726;23.342;2023-01-27T09:49:20;94471.00;;;2.65;nan
6224;BME280;3145;42.726;23.342;2023-01-27T09:52:00;94472.00;;;2.64;nan
6224;BME280;3145;42.726;23.342;2023-01-27T09:54:41;94458.75;;;2.58;nan
6224;BME280;3145;42.726;23.342;2023-01-27T09:57:19;94455.31;;;2.57;nan
6224;BME280;3145;42.726;23.342;2023-01-27T10:00:08;94445.81;;;2.48;nan
6224;BME280;3145;42.726;23.342;2023-01-27T10:03:06;94452.97;;;2.46;nan
6224;BME280;3145;42.726;23.342;2023-01-27T10:08:44;94434.06;;;2.44;nan
6224;BME280;3145;42.726;23.342;2023-01-27T10:11:18;94433.56;;;2.41;nan
6224;BME280;3145;42.726;23.342;2023-01-27T10:13:56;94432.69;;;2.32;nan
6224;BME280;3145;42.726;23.342;2023-01-27T10:16:54;94434.66;;;2.38;nan
6224;BME280;3145;42.726;23.342;2023-01-27T10:19:34;94436.31;;;2.39;nan
6224;BME280;3145;42.726;23.342;2023-01-27T10:22:14;94432.72;;;2.40;nan
6224;BME280;3145;42.726;23.342;2023-01-27T10:24:53;94433.09;;;2.45;nan
6224;BME280;3145;42.726;23.342;2023-01-27T10:27:26;94448.72;;;2.45;nan
6224;BME280;3145;42.726;23.342;2023-01-27T10:29:56;94433.75;;;2.47;nan
6224;BME280;3145;42.726;23.342;2023-01-27T10:32:27;94440.19;;;2.35;nan
6224;BME280;3145;42.726;23.342;2023-01-27T10:35:07;94438.94;;;2.22;nan
6224;BME280;3145;42.726;23.342;2023-01-27T10:37:46;94436.91;;;2.33;nan
6224;BME280;3145;42.726;23.342;2023-01-27T10:40:19;94426.19;;;2.36;nan
6224;BME280;3145;42.726;23.342;2023-01-27T10:42:56;94411.72;;;2.16;nan
6224;BME280;3145;42.726;23.342;2023-01-27T10:45:29;94430.00;;;2.24;nan
6224;BME280;3145;42.726;23.342;2023-01-27T10:48:17;94426.53;;;2.16;nan
6224;BME280;3145;42.726;23.342;2023-01-27T10:50:49;94429.28;;;2.14;nan
6224;BME280;3145;42.726;23.342;2023-01-27T10:53:21;94436.50;;;2.20;nan
6224;BME280;3145;42.726;23.342;2023-01-27T10:55:57;94435.09;;;2.08;nan
6224;BME280;3145;42.726;23.342;2023-01-27T10:58:35;94422.78;;;2.18;nan
6224;BME280;3145;42.726;23.342;2023-01-27T11:01:05;94414.53;;;2.23;nan
6224;BME280;3145;42.726;23.342;2023-01-27T11:03:39;94417.28;;;2.21;nan
6224;BME280;3145;42.726;23.342;2023-01-27T11:06:11;94411.38;;;2.11;nan
6224;BME280;3145;42.726;23.342;2023-01-27T11:08:43;94422.50;;;2.21;nan
6224;BME280;3145;42.726;23.342;2023-01-27T11:11:12;94422.34;;;2.23;nan
6224;BME280;3145;42.726;23.342;2023-01-27T11:14:00;94422.50;;;2.21;nan
6224;BME280;3145;42.726;23.342;2023-01-27T11:16:33;94416.47;;;2.21;nan
6224;BME280;3145;42.726;23.342;2023-01-27T11:19:12;94425.56;;;2.17;nan
6224;BME280;3145;42.726;23.342;2023-01-27T11:21:40;94417.59;;;2.18;nan
6224;BME280;3145;42.726;23.342;2023-01-27T11:24:19;94411.00;;;2.32;nan
6224;BME280;3145;42.726;23.342;2023-01-27T11:26:52;94398.50;;;2.35;nan
6224;BME280;3145;42.726;23.342;2023-01-27T11:29:27;94399.50;;;2.42;nan
6224;BME280;3145;42.726;23.342;2023-01-27T11:32:00;94399.22;;;2.45;nan
6224;BME280;3145;42.726;23.342;2023-01-27T11:34:36;94402.78;;;2.44;nan
6224;BME280;3145;42.726;23.342;2023-01-27T11:37:16;94388.28;;;2.42;nan
6224;BME280;3145;42.726;23.342;2023-01-27T11:39:43;94397.13;;;2.49;nan
6224;BME280;3145;42.726;23.342;2023-01-27T11:42:10;94391.88;;;2.41;nan
6224;BME280;3145;42.726;23.342;2023-01-27T11:44:38;94402.59;;;2.38;nan
6224;BME280;3145;42.726;23.342;2023-01-27T11:47:06;94409.22;;;2.32;nan
6224;BME280;3145;42.726;23.342;2023-01-27T11:49:41;94341.09;;;1.94;nan
6224;BME280;3145;42.726;23.342;2023-01-27T11:52:11;94406.88;;;2.21;nan
6224;BME280;3145;42.726;23.342;2023-01-27T11:54:43;94392.88;;;2.22;nan
6224;BME280;3145;42.726;23.342;2023-01-27T11:57:17;94386.75;;;2.31;nan
6224;BME280;3145;42.726;23.342;2023-01-27T11:59:45;94339.97;;;1.96;nan
6224;BME280;3145;42.726;23.342;2023-01-27T12:02:23;94360.03;;;2.04;nan
6224;BME280;3145;42.726;23.342;2023-01-27T12:04:58;94385.09;;;2.30;nan
6224;BME280;3145;42.726;23.342;2023-01-27T12:07:34;94348.66;;;2.05;nan
6224;BME280;3145;42.726;23.342;2023-01-27T12:10:21;94391.97;;;2.31;nan
6224;BME280;3145;42.726;23.342;2023-01-27T12:12:48;94392.88;;;2.22;nan
6224;BME280;3145;42.726;23.342;2023-01-27T12:15:16;94379.06;;;2.04;nan
6224;BME280;3145;42.726;23.342;2023-01-27T12:17:46;94393.44;;;2.08;nan
6224;BME280;3145;42.726;23.342;2023-01-27T12:20:25;94391.03;;;2.15;nan
6224;BME280;3145;42.726;23.342;2023-01-27T12:22:56;94403.91;;;2.16;nan
6224;BME280;3145;42.726;23.342;2023-01-27T12:25:25;94376.31;;;2.06;nan
6224;BME280;3145;42.726;23.342;2023-01-27T12:27:55;94394.69;;;2.04;nan
6224;BME280;3145;42.726;23.342;2023-01-27T12:30:25;94410.03;;;2.07;nan
6224;BME280;3145;42.726;23.342;2023-01-27T12:32:53;94412.19;;;1.94;nan
6224;BME280;3145;42.726;23.342;2023-01-27T12:35:23;94397.53;;;1.93;nan
6224;BME280;3145;42.726;23.342;2023-01-27T12:37:55;94404.00;;;1.89;nan
6224;BME280;3145;42.726;23.342;2023-01-27T12:40:23;94405.97;;;1.87;nan
6224;BME280;3145;42.726;23.342;2023-01-27T12:43:06;94402.97;;;2.00;nan
6224;BME280;3145;42.726;23.342;2023-01-27T12:45:35;94395.78;;;2.19;nan
6224;BME280;3145;42.726;23.342;2023-01-27T12:48:16;94392.91;;;2.30;nan
6224;BME280;3145;42.726;23.342;2023-01-27T12:51:02;94399.88;;;2.47;nan
6224;BME280;3145;42.726;23.342;2023-01-27T12:53:30;94389.47;;;2.47;nan
6224;BME280;3145;42.726;23.342;2023-01-27T12:55:59;94370.84;;;2.42;nan
6224;BME280;3145;42.726;23.342;2023-01-27T12:58:31;94392.38;;;2.44;nan
6224;BME280;3145;42.726;23.342;2023-01-27T13:01:00;94384.84;;;2.41;nan
6224;BME280;3145;42.726;23.342;2023-01-27T13:03:28;94387.56;;;2.57;nan
6224;BME280;3145;42.726;23.342;2023-01-27T13:05:58;94390.84;;;2.59;nan
6224;BME280;3145;42.726;23.342;2023-01-27T13:08:27;94387.56;;;2.57;nan
6224;BME280;3145;42.726;23.342;2023-01-27T13:10:58;94381.25;;;2.42;nan
6224;BME280;3145;42.726;23.342;2023-01-27T13:13:27;94366.06;;;2.55;nan
6224;BME280;3145;42.726;23.342;2023-01-27T13:15:56;94374.25;;;2.68;nan
6224;BME280;3145;42.726;23.342;2023-01-27T13:18:32;94382.50;;;2.89;nan
6224;BME280;3145;42.726;23.342;2023-01-27T13:21:08;94385.69;;;2.75;nan
6224;BME280;3145;42.726;23.342;2023-01-27T13:23:38;94383.84;;;3.01;nan
6224;BME280;3145;42.726;23.342;2023-01-27T13:26:11;94387.91;;;3.04;nan
6224;BME280;3145;42.726;23.342;2023-01-27T13:28:43;94386.63;;;3.08;nan
6224;BME280;3145;42.726;23.342;2023-01-27T13:31:16;94386.50;;;3.17;nan
6224;BME280;3145;42.726;23.342;2023-01-27T13:33:47;94382.13;;;3.18;nan
6224;BME280;3145;42.726;23.342;2023-01-27T13:36:26;94397.91;;;3.08;nan
6224;BME280;3145;42.726;23.342;2023-01-27T13:38:59;94392.94;;;2.97;nan
6224;BME280;3145;42.726;23.342;2023-01-27T13:41:33;94379.41;;;2.94;nan
6224;BME280;3145;42.726;23.342;2023-01-27T13:44:07;94393.59;;;2.91;nan
6224;BME280;3145;42.726;23.342;2023-01-27T13:46:37;94392.47;;;2.60;nan
6224;BME280;3145;42.726;23.342;2023-01-27T13:49:15;94393.13;;;2.62;nan
6224;BME280;3145;42.726;23.342;2023-01-27T13:51:44;94394.72;;;2.55;nan
6224;BME280;3145;42.726;23.342;2023-01-27T13:54:13;94398.81;;;2.58;nan
6224;BME280;3145;42.726;23.342;2023-01-27T13:56:49;94390.41;;;2.46;nan
6224;BME280;3145;42.726;23.342;2023-01-27T13:59:31;94405.16;;;2.55;nan
6224;BME280;3145;42.726;23.342;2023-01-27T14:02:13;94409.28;;;2.40;nan
6224;BME280;3145;42.726;23.342;2023-01-27T14:04:56;94414.72;;;2.29;nan